Time;durP1;ratioP1;P1;durP2;ratioP2;P2;SDS_P1;SDS_P2;PMS_P1;PMS_P2;Temp;Humidity;BMP_temperature;BMP_pressure;BME280_temperature;BME280_humidity;BME280_pressure;Samples;Min_cycle;Max_cycle;Signal;HPM_P1;HPM_P2
2023/12/29 00:01:17;;;;;;;34.85;19.77;;;;;;;0.69;100.00;96989.44;5014314;28;20041;-75
2023/12/29 00:03:42;;;;;;;32.38;20.55;;;;;;;0.74;100.00;96983.97;5020230;28;20400;-74
2023/12/29 00:06:08;;;;;;;31.60;20.23;;;;;;;0.87;100.00;96982.41;5029814;28;20037;-75
2023/12/29 00:08:33;;;;;;;37.70;22.52;;;;;;;0.76;100.00;96974.47;5033434;28;20041;-75
2023/12/29 00:10:59;;;;;;;36.97;21.58;;;;;;;0.65;100.00;96972.22;5019130;28;20179;-74
2023/12/29 00:13:25;;;;;;;34.83;21.92;;;;;;;0.61;100.00;96971.22;5024388;28;20041;-74
2023/12/29 00:15:54;;;;;;;38.03;21.63;;;;;;;0.62;100.00;96970.94;5029480;28;20037;-75
2023/12/29 00:18:20;;;;;;;34.50;22.02;;;;;;;0.67;100.00;96973.56;5017410;28;20109;-75
2023/12/29 00:20:45;;;;;;;33.05;21.15;;;;;;;0.76;100.00;96962.91;5025505;28;20068;-75
2023/12/29 00:23:11;;;;;;;75.68;40.60;;;;;;;0.62;100.00;96952.06;5021703;28;20532;-75
2023/12/29 00:25:37;;;;;;;41.65;23.48;;;;;;;0.53;100.00;96954.63;5040959;28;20400;-73
2023/12/29 00:28:03;;;;;;;38.22;21.90;;;;;;;0.70;100.00;96951.41;5018321;28;20041;-74
2023/12/29 00:30:29;;;;;;;33.17;21.70;;;;;;;0.86;100.00;96940.34;5017590;28;20044;-76
2023/12/29 00:32:55;;;;;;;35.55;20.00;;;;;;;0.72;100.00;96943.81;5020504;28;20038;-75
2023/12/29 00:35:21;;;;;;;29.70;18.52;;;;;;;1.00;100.00;96943.06;5015730;28;20273;-76
2023/12/29 00:37:47;;;;;;;29.23;18.40;;;;;;;1.09;100.00;96936.66;5022005;28;20132;-75
2023/12/29 00:40:13;;;;;;;29.98;17.98;;;;;;;1.13;100.00;96928.75;5019440;28;20148;-76
2023/12/29 00:42:38;;;;;;;28.70;17.90;;;;;;;1.27;100.00;96921.47;5023062;28;20120;-76
2023/12/29 00:45:04;;;;;;;30.70;17.90;;;;;;;1.34;100.00;96912.97;5018929;28;20041;-74
2023/12/29 00:47:30;;;;;;;31.98;18.75;;;;;;;1.39;100.00;96912.06;5022728;28;20094;-75
2023/12/29 00:49:56;;;;;;;33.03;17.88;;;;;;;1.42;100.00;96900.66;5017303;28;20065;-75
2023/12/29 00:52:21;;;;;;;30.33;17.77;;;;;;;1.45;100.00;96892.75;5018380;28;20046;-75
2023/12/29 00:54:47;;;;;;;28.77;17.05;;;;;;;1.47;100.00;96893.25;5022512;28;20034;-75
2023/12/29 00:57:12;;;;;;;30.27;17.70;;;;;;;1.52;100.00;96893.16;5016936;28;20075;-74
2023/12/29 00:59:41;;;;;;;28.52;17.90;;;;;;;1.49;100.00;96901.84;5022524;28;20068;-75
2023/12/29 01:02:06;;;;;;;25.80;16.92;;;;;;;1.55;100.00;96902.56;5017994;28;20472;-75
2023/12/29 01:04:32;;;;;;;26.00;17.27;;;;;;;1.59;100.00;96900.84;5021324;28;20120;-74
2023/12/29 01:06:57;;;;;;;23.67;16.45;;;;;;;1.61;100.00;96898.63;5022752;28;20038;-74
2023/12/29 01:09:22;;;;;;;24.85;16.13;;;;;;;1.65;100.00;96901.53;5014917;28;20053;-74
2023/12/29 01:11:48;;;;;;;24.95;16.73;;;;;;;1.68;100.00;96903.63;5022806;28;20144;-74
2023/12/29 01:14:13;;;;;;;27.05;16.85;;;;;;;1.74;100.00;96910.50;5017205;28;20648;-74
2023/12/29 01:16:40;;;;;;;25.58;16.00;;;;;;;1.79;100.00;96902.28;5020953;28;20045;-75
2023/12/29 01:19:05;;;;;;;23.95;15.68;;;;;;;1.77;100.00;96898.31;5015806;28;20033;-74
2023/12/29 01:21:34;;;;;;;27.13;15.98;;;;;;;1.65;100.00;96898.81;5022556;28;20044;-75
2023/12/29 01:24:01;;;;;;;26.88;16.73;;;;;;;1.57;100.00;96894.13;5022774;28;20069;-75
2023/12/29 01:26:26;;;;;;;23.42;15.35;;;;;;;1.64;100.00;96891.81;5016949;28;20049;-74
2023/12/29 01:28:52;;;;;;;26.33;15.57;;;;;;;1.68;100.00;96911.72;5021921;28;20029;-75
2023/12/29 01:31:17;;;;;;;27.77;16.13;;;;;;;1.61;100.00;96911.34;5006924;28;20041;-75
2023/12/29 01:33:43;;;;;;;23.80;15.38;;;;;;;1.61;100.00;96911.34;5023580;28;20061;-76
2023/12/29 01:36:08;;;;;;;23.25;15.15;;;;;;;1.56;100.00;96906.06;5018462;28;20045;-75
2023/12/29 01:38:33;;;;;;;23.17;15.07;;;;;;;1.66;100.00;96920.13;5022633;28;20113;-75
2023/12/29 01:40:59;;;;;;;25.13;14.85;;;;;;;1.63;100.00;96904.53;5021588;28;20045;-75
2023/12/29 01:43:24;;;;;;;21.98;13.93;;;;;;;1.64;100.00;96908.84;5008075;28;20436;-74
2023/12/29 01:45:49;;;;;;;21.23;14.68;;;;;;;1.59;100.00;96900.84;5021386;28;20583;-74
2023/12/29 01:48:15;;;;;;;21.85;14.23;;;;;;;1.46;100.00;96898.94;5009096;28;20056;-75
2023/12/29 01:50:41;;;;;;;22.58;14.50;;;;;;;1.34;100.00;96891.38;5020626;28;20041;-75
2023/12/29 01:53:07;;;;;;;24.35;15.00;;;;;;;1.06;100.00;96894.13;5032462;28;20061;-75
2023/12/29 01:55:33;;;;;;;27.42;16.13;;;;;;;1.01;100.00;96896.09;5023980;28;20627;-75
2023/12/29 01:57:59;;;;;;;21.80;15.18;;;;;;;1.04;100.00;96896.28;5039100;28;20041;-75
2023/12/29 02:00:25;;;;;;;23.48;14.98;;;;;;;1.03;100.00;96886.63;5016734;28;20507;-75
2023/12/29 02:02:51;;;;;;;22.55;15.38;;;;;;;1.02;100.00;96887.69;5036235;28;20535;-74
2023/12/29 02:05:17;;;;;;;24.13;15.32;;;;;;;1.02;100.00;96892.31;5016953;28;20042;-75
2023/12/29 02:07:43;;;;;;;20.63;14.27;;;;;;;1.00;100.00;96883.72;5019815;28;20543;-75
2023/12/29 02:10:09;;;;;;;26.70;15.95;;;;;;;0.99;100.00;96900.97;5017671;28;20492;-75
2023/12/29 02:12:38;;;;;;;24.30;15.45;;;;;;;0.92;100.00;96893.31;5020538;28;20104;-75
2023/12/29 02:15:05;;;;;;;23.17;15.43;;;;;;;0.82;100.00;96890.81;5017311;28;20038;-74
2023/12/29 02:17:52;;;;;;;26.48;16.73;;;;;;;0.74;100.00;96885.00;5020145;28;20045;-75
2023/12/29 02:20:18;;;;;;;22.55;15.93;;;;;;;0.66;100.00;96882.19;5016540;28;20041;-75
2023/12/29 02:22:43;;;;;;;23.10;15.57;;;;;;;0.55;100.00;96881.56;5021295;28;20068;-75
2023/12/29 02:25:09;;;;;;;23.40;15.07;;;;;;;0.52;100.00;96885.69;5032341;28;20045;-75
2023/12/29 02:27:57;;;;;;;23.55;16.95;;;;;;;0.61;100.00;96884.97;5020970;28;20037;-75
2023/12/29 02:30:28;;;;;;;23.48;15.63;;;;;;;0.63;100.00;96875.50;5014169;28;20052;-75
2023/12/29 02:33:07;;;;;;;25.25;16.55;;;;;;;0.61;100.00;96872.28;5021379;28;20057;-75
2023/12/29 02:35:37;;;;;;;25.88;16.10;;;;;;;0.62;100.00;96871.22;5013499;28;20046;-75
2023/12/29 02:38:02;;;;;;;27.13;17.33;;;;;;;0.65;100.00;96876.00;5019824;28;20523;-73
2023/12/29 02:40:28;;;;;;;27.52;16.80;;;;;;;0.63;100.00;96866.59;5032775;28;20041;-75
2023/12/29 02:42:53;;;;;;;24.92;16.45;;;;;;;0.55;100.00;96860.81;5020142;28;20121;-75
2023/12/29 02:45:18;;;;;;;28.50;17.25;;;;;;;0.48;100.00;96867.69;5016518;28;20132;-75
2023/12/29 02:47:44;;;;;;;26.95;17.55;;;;;;;0.36;100.00;96858.19;5016987;28;20038;-74
2023/12/29 02:50:10;;;;;;;26.33;16.65;;;;;;;0.33;100.00;96866.88;5009943;28;20049;-73
2023/12/29 02:52:36;;;;;;;24.73;16.52;;;;;;;0.42;100.00;96866.97;5033227;28;20041;-74
2023/12/29 02:55:03;;;;;;;24.48;15.70;;;;;;;0.44;100.00;96880.16;5014318;28;20045;-75
2023/12/29 02:57:29;;;;;;;25.30;16.20;;;;;;;0.37;100.00;96873.25;5031722;28;20045;-73
2023/12/29 02:59:55;;;;;;;22.63;15.60;;;;;;;0.29;100.00;96875.81;5024651;28;20034;-74
2023/12/29 03:02:22;;;;;;;30.50;17.05;;;;;;;0.18;100.00;96878.69;5027998;28;20120;-74
2023/12/29 03:04:47;;;;;;;25.35;15.32;;;;;;;0.21;100.00;96868.44;5022225;28;20048;-74
2023/12/29 03:07:12;;;;;;;27.80;16.20;;;;;;;0.17;100.00;96870.91;5015269;28;20041;-74
2023/12/29 03:09:38;;;;;;;25.27;17.95;;;;;;;0.09;100.00;96858.94;5009876;28;20049;-74
2023/12/29 03:12:04;;;;;;;28.52;17.23;;;;;;;0.10;100.00;96863.19;5032351;28;20037;-73
2023/12/29 03:14:29;;;;;;;25.42;16.92;;;;;;;0.17;100.00;96857.44;5033620;28;20065;-75
2023/12/29 03:16:54;;;;;;;25.00;16.92;;;;;;;0.16;100.00;96853.97;5017605;28;20045;-75
2023/12/29 03:19:20;;;;;;;26.33;17.33;;;;;;;0.19;100.00;96847.16;5015804;28;20044;-75
2023/12/29 03:21:45;;;;;;;27.27;17.52;;;;;;;0.27;100.00;96846.50;5020180;28;20053;-75
2023/12/29 03:24:11;;;;;;;27.85;15.85;;;;;;;0.44;100.00;96845.13;5030459;28;20072;-74
2023/12/29 03:26:36;;;;;;;27.98;17.63;;;;;;;0.54;100.00;96839.53;5019831;28;20528;-75
2023/12/29 03:29:01;;;;;;;25.50;16.33;;;;;;;0.62;100.00;96838.84;5019857;28;20087;-74
2023/12/29 03:31:27;;;;;;;25.00;16.88;;;;;;;0.67;100.00;96848.75;5015509;28;20049;-75
2023/12/29 03:33:53;;;;;;;24.30;16.00;;;;;;;0.62;100.00;96840.75;5034996;28;20029;-75
2023/12/29 03:36:18;;;;;;;22.42;15.13;;;;;;;0.66;100.00;96839.06;5029664;28;20091;-74
2023/12/29 03:38:43;;;;;;;26.25;15.60;;;;;;;0.75;100.00;96839.97;5034338;28;20045;-74
2023/12/29 03:41:09;;;;;;;23.52;15.05;;;;;;;0.86;100.00;96833.25;5014505;28;20546;-75
2023/12/29 03:43:34;;;;;;;26.20;15.82;;;;;;;0.99;100.00;96841.66;5019637;28;20412;-75
2023/12/29 03:45:59;;;;;;;21.77;14.98;;;;;;;0.97;100.00;96823.06;5019687;28;20037;-75
2023/12/29 03:48:25;;;;;;;24.67;15.18;;;;;;;0.98;100.00;96830.06;5006967;28;20041;-75
2023/12/29 03:50:50;;;;;;;23.65;13.70;;;;;;;0.99;100.00;96844.34;5019210;28;20061;-75
2023/12/29 03:53:16;;;;;;;21.85;13.63;;;;;;;1.00;100.00;96846.75;5014533;28;20044;-74
2023/12/29 03:55:41;;;;;;;21.73;14.35;;;;;;;1.03;100.00;96848.06;5020625;28;20136;-75
2023/12/29 03:58:07;;;;;;;19.40;14.00;;;;;;;1.14;100.00;96858.31;5010317;28;20040;-75
2023/12/29 04:00:32;;;;;;;22.73;14.93;;;;;;;0.92;100.00;96855.56;5018382;28;20045;-75
2023/12/29 04:02:57;;;;;;;24.83;14.32;;;;;;;1.02;100.00;96857.25;5019003;28;20036;-75
2023/12/29 04:05:23;;;;;;;21.77;15.02;;;;;;;1.13;100.00;96851.34;5011979;28;20049;-75
2023/12/29 04:07:48;;;;;;;22.67;14.38;;;;;;;1.17;100.00;96854.25;5016768;28;20496;-74
2023/12/29 04:10:14;;;;;;;21.95;14.98;;;;;;;1.17;100.00;96865.03;5015095;28;20353;-75
2023/12/29 04:12:40;;;;;;;20.48;14.35;;;;;;;1.19;100.00;96849.34;5019177;28;20034;-74
2023/12/29 04:15:06;;;;;;;22.73;14.25;;;;;;;0.98;100.00;96848.94;5012491;28;20099;-74
2023/12/29 04:17:32;;;;;;;22.77;13.80;;;;;;;0.64;100.00;96833.16;5017785;28;20532;-75
2023/12/29 04:19:57;;;;;;;22.42;14.77;;;;;;;0.42;100.00;96831.16;5018958;28;20038;-74
2023/12/29 04:22:23;;;;;;;22.85;15.15;;;;;;;0.36;100.00;96833.94;5013875;28;20037;-74
2023/12/29 04:24:48;;;;;;;21.65;14.25;;;;;;;0.57;100.00;96837.03;5019383;28;20046;-74
2023/12/29 04:27:15;;;;;;;22.50;14.40;;;;;;;0.78;100.00;96855.53;5014910;28;20050;-74
2023/12/29 04:29:40;;;;;;;27.55;14.63;;;;;;;0.84;100.00;96840.06;5018499;28;20042;-74
2023/12/29 04:32:06;;;;;;;20.60;14.38;;;;;;;1.00;100.00;96845.97;5014440;28;20674;-74
2023/12/29 04:34:31;;;;;;;21.58;13.88;;;;;;;1.08;100.00;96856.03;5018665;28;20110;-74
2023/12/29 04:36:56;;;;;;;22.88;15.45;;;;;;;1.16;100.00;96854.53;5019521;28;20064;-74
2023/12/29 04:39:22;;;;;;;22.95;15.07;;;;;;;1.25;100.00;96850.03;5013907;28;20079;-74
2023/12/29 04:41:47;;;;;;;35.50;19.75;;;;;;;1.27;100.00;96850.53;5019479;28;20033;-74
2023/12/29 04:44:12;;;;;;;21.20;15.38;;;;;;;1.39;100.00;96856.19;5013525;28;20103;-74
2023/12/29 04:46:38;;;;;;;20.92;13.73;;;;;;;1.50;100.00;96845.97;5018543;28;20709;-74
2023/12/29 04:49:03;;;;;;;25.27;14.00;;;;;;;1.53;100.00;96851.56;5005789;28;20511;-72
2023/12/29 04:51:29;;;;;;;24.52;13.75;;;;;;;1.38;100.00;96848.41;5017957;28;20041;-73
2023/12/29 04:53:55;;;;;;;26.98;15.90;;;;;;;0.96;100.00;96829.56;5033532;28;20460;-74
2023/12/29 04:56:20;;;;;;;24.90;15.95;;;;;;;0.95;100.00;96834.19;5014836;28;20095;-74
2023/12/29 04:58:46;;;;;;;27.33;15.63;;;;;;;0.78;100.00;96835.88;5019168;28;20038;-74
2023/12/29 05:01:11;;;;;;;26.67;16.23;;;;;;;0.73;100.00;96836.75;5014675;28;20500;-74
2023/12/29 05:03:36;;;;;;;24.90;15.30;;;;;;;0.88;100.00;96843.75;5018683;28;20053;-73
2023/12/29 05:06:02;;;;;;;22.75;15.85;;;;;;;0.98;100.00;96848.16;5032938;28;20038;-73
2023/12/29 05:08:27;;;;;;;23.48;14.63;;;;;;;1.14;100.00;96850.22;5008816;28;20515;-74
2023/12/29 05:10:52;;;;;;;21.67;14.05;;;;;;;1.16;100.00;96851.84;5004312;28;20535;-73
2023/12/29 05:13:18;;;;;;;25.90;15.27;;;;;;;1.14;100.00;96852.13;5028382;28;20037;-74
2023/12/29 05:15:44;;;;;;;23.70;14.80;;;;;;;1.14;100.00;96844.84;5015383;28;20037;-73
2023/12/29 05:18:09;;;;;;;24.08;14.98;;;;;;;1.26;100.00;96863.22;5028508;28;20540;-74
2023/12/29 05:20:35;;;;;;;20.80;13.95;;;;;;;1.59;100.00;96862.25;5016819;28;20034;-74
2023/12/29 05:23:00;;;;;;;21.83;13.77;;;;;;;1.56;100.00;96857.47;5019031;28;20038;-75
2023/12/29 05:25:26;;;;;;;19.98;13.13;;;;;;;1.55;100.00;96862.06;5017905;28;20049;-74
2023/12/29 05:27:51;;;;;;;19.55;13.48;;;;;;;1.41;100.00;96858.59;5022946;28;20041;-74
2023/12/29 05:30:16;;;;;;;23.48;13.98;;;;;;;1.13;100.00;96858.63;5017582;28;20044;-75
2023/12/29 05:32:42;;;;;;;21.95;13.18;;;;;;;1.12;100.00;96867.84;5036464;28;20041;-74
2023/12/29 05:35:07;;;;;;;19.48;13.32;;;;;;;1.30;100.00;96875.00;5017976;28;20036;-74
2023/12/29 05:37:33;;;;;;;19.85;12.70;;;;;;;1.38;100.00;96876.19;5023859;28;20504;-74
2023/12/29 05:39:58;;;;;;;22.55;13.95;;;;;;;1.31;100.00;96881.19;5026800;28;20033;-74
2023/12/29 05:42:23;;;;;;;23.90;14.10;;;;;;;1.31;100.00;96875.78;5021760;28;20475;-74
2023/12/29 05:44:49;;;;;;;20.90;13.93;;;;;;;1.37;100.00;96882.69;5042339;28;20279;-73
2023/12/29 05:47:17;;;;;;;23.13;14.18;;;;;;;1.45;100.00;96889.28;5020916;28;20045;-74
2023/12/29 05:49:42;;;;;;;19.90;12.73;;;;;;;1.58;100.00;96896.53;5040745;28;20041;-74
2023/12/29 05:52:08;;;;;;;19.73;13.63;;;;;;;1.81;100.00;96894.69;5010846;28;20038;-74
2023/12/29 05:54:34;;;;;;;19.27;13.57;;;;;;;1.83;100.00;96892.47;5019743;28;20049;-76
2023/12/29 05:57:00;;;;;;;18.95;12.75;;;;;;;1.88;100.00;96886.94;5009353;28;20049;-75
2023/12/29 05:59:25;;;;;;;21.52;13.20;;;;;;;1.97;100.00;96883.53;5022437;28;20050;-74
2023/12/29 06:01:50;;;;;;;19.88;13.45;;;;;;;1.98;100.00;96883.22;5021584;28;20050;-73
2023/12/29 06:04:16;;;;;;;20.55;14.07;;;;;;;2.01;100.00;96888.00;5015509;28;20041;-75
2023/12/29 06:06:42;;;;;;;20.38;13.40;;;;;;;2.07;100.00;96892.19;5035943;28;20396;-74
2023/12/29 06:09:11;;;;;;;19.35;12.35;;;;;;;2.27;100.00;96896.31;5027080;28;20041;-74
2023/12/29 06:11:36;;;;;;;19.23;12.38;;;;;;;2.41;100.00;96893.56;5019529;28;20516;-74
2023/12/29 06:14:02;;;;;;;20.13;13.27;;;;;;;2.46;100.00;96881.78;5019676;28;20057;-73
2023/12/29 06:16:29;;;;;;;16.90;11.90;;;;;;;2.49;100.00;96886.59;5013047;28;20435;-74
2023/12/29 06:18:55;;;;;;;20.05;12.13;;;;;;;2.46;100.00;96885.28;5020183;28;20467;-75
2023/12/29 06:21:20;;;;;;;16.15;12.10;;;;;;;2.48;100.00;96884.97;5023608;28;20133;-74
2023/12/29 06:23:46;;;;;;;21.55;12.77;;;;;;;2.37;100.00;96887.13;5033150;28;20051;-75
2023/12/29 06:26:18;;;;;;;19.15;12.82;;;;;;;2.29;100.00;96882.50;5015381;28;20059;-74
2023/12/29 06:28:45;;;;;;;18.83;12.77;;;;;;;2.23;100.00;96881.00;5019797;28;20049;-74
2023/12/29 06:31:11;;;;;;;23.90;14.05;;;;;;;2.22;100.00;96884.84;5014831;28;20044;-73
2023/12/29 06:33:36;;;;;;;22.70;13.98;;;;;;;2.32;100.00;96891.88;5020247;28;20038;-74
2023/12/29 06:36:02;;;;;;;19.40;13.05;;;;;;;2.39;100.00;96874.09;5033962;28;20041;-75
2023/12/29 06:38:27;;;;;;;22.10;13.63;;;;;;;2.57;100.00;96876.91;5014663;28;20736;-74
2023/12/29 06:40:53;;;;;;;18.80;12.88;;;;;;;2.79;100.00;96879.59;5020150;28;20060;-74
2023/12/29 06:43:18;;;;;;;17.85;12.18;;;;;;;2.94;100.00;96872.16;5015583;28;20073;-74
2023/12/29 06:45:44;;;;;;;23.88;13.70;;;;;;;3.12;100.00;96865.69;4994999;28;20054;-73
2023/12/29 06:48:09;;;;;;;19.08;12.85;;;;;;;3.24;100.00;96873.19;5015281;28;20045;-74
2023/12/29 06:50:35;;;;;;;19.25;12.70;;;;;;;3.34;100.00;96866.72;5019340;28;20045;-73
2023/12/29 06:53:02;;;;;;;18.88;11.85;;;;;;;3.42;100.00;96871.34;5020056;28;20061;-74
2023/12/29 06:55:28;;;;;;;18.17;11.57;;;;;;;3.45;100.00;96870.72;4975714;28;1151253;-74
2023/12/29 06:57:53;;;;;;;18.80;11.85;;;;;;;3.45;100.00;96868.78;5036430;28;20048;-74
2023/12/29 07:00:18;;;;;;;17.13;11.35;;;;;;;3.53;100.00;96863.69;5016297;28;20049;-74
2023/12/29 07:02:44;;;;;;;18.02;11.63;;;;;;;3.48;100.00;96855.75;5034682;28;20523;-74
2023/12/29 07:05:09;;;;;;;16.65;11.07;;;;;;;3.49;100.00;96866.25;5031577;28;20057;-72
2023/12/29 07:07:37;;;;;;;18.15;11.55;;;;;;;3.45;100.00;96863.38;5014880;28;20050;-75
2023/12/29 07:10:03;;;;;;;18.50;11.65;;;;;;;3.49;100.00;96868.94;5016438;28;20448;-74
2023/12/29 07:12:29;;;;;;;38.22;23.40;;;;;;;3.54;100.00;96868.00;5009667;28;20037;-75
2023/12/29 07:14:54;;;;;;;22.70;14.38;;;;;;;3.66;100.00;96868.19;5021402;28;20072;-75
2023/12/29 07:17:20;;;;;;;56.75;22.27;;;;;;;3.79;100.00;96875.38;4976463;28;20052;-75
2023/12/29 07:19:45;;;;;;;41.15;16.90;;;;;;;3.81;100.00;96869.63;5018505;28;20049;-75
2023/12/29 07:22:10;;;;;;;28.05;14.50;;;;;;;3.79;100.00;96866.44;5007709;28;20508;-74
2023/12/29 07:24:36;;;;;;;20.63;12.68;;;;;;;3.77;100.00;96872.19;5012597;28;20053;-74
2023/12/29 07:27:02;;;;;;;27.27;14.73;;;;;;;3.81;100.00;96866.91;5012963;28;20038;-75
2023/12/29 07:29:28;;;;;;;25.10;13.82;;;;;;;3.78;100.00;96872.97;5027134;28;20026;-73
2023/12/29 07:31:53;;;;;;;20.75;12.63;;;;;;;3.78;100.00;96872.97;5024082;28;20052;-74
2023/12/29 07:34:20;;;;;;;22.17;13.55;;;;;;;3.76;100.00;96878.72;5006418;28;20033;-75
2023/12/29 07:36:45;;;;;;;25.02;13.88;;;;;;;3.74;100.00;96882.84;5011082;28;20124;-74
2023/12/29 07:39:10;;;;;;;25.38;13.00;;;;;;;3.75;100.00;96881.75;5015743;28;20152;-75
2023/12/29 07:41:40;;;;;;;22.23;12.27;;;;;;;3.80;100.00;96889.72;5015656;28;20041;-72
2023/12/29 07:44:06;;;;;;;25.95;15.05;;;;;;;3.79;100.00;96890.84;5008045;28;20033;-73
2023/12/29 07:46:31;;;;;;;26.65;16.08;;;;;;;3.74;100.00;96891.78;5019028;28;20052;-74
2023/12/29 07:48:57;;;;;;;32.85;16.92;;;;;;;3.74;100.00;96891.78;5026268;28;20041;-74
2023/12/29 07:51:22;;;;;;;56.85;27.55;;;;;;;3.66;100.00;96887.16;5014390;28;20041;-74
2023/12/29 07:53:47;;;;;;;46.97;28.17;;;;;;;3.61;100.00;96896.22;5017162;28;20030;-74
2023/12/29 07:56:14;;;;;;;53.55;31.35;;;;;;;3.66;100.00;96903.41;5008915;28;20684;-74
2023/12/29 07:58:39;;;;;;;26.30;16.23;;;;;;;3.66;100.00;96886.38;5017665;28;20061;-73
2023/12/29 08:01:05;;;;;;;28.02;15.43;;;;;;;3.57;100.00;96879.00;5013806;28;20458;-74
2023/12/29 08:03:30;;;;;;;22.35;14.48;;;;;;;3.72;100.00;96893.22;5018884;28;20037;-74
2023/12/29 08:05:56;;;;;;;19.80;13.43;;;;;;;3.78;100.00;96898.16;5020113;28;20046;-74
2023/12/29 08:08:21;;;;;;;21.08;15.05;;;;;;;3.89;100.00;96900.53;5008353;28;20168;-75
2023/12/29 08:10:47;;;;;;;21.70;14.95;;;;;;;3.92;100.00;96900.72;5019650;28;20099;-75
2023/12/29 08:13:12;;;;;;;21.67;14.52;;;;;;;3.96;100.00;96896.28;5029034;28;20049;-75
2023/12/29 08:15:37;;;;;;;20.52;13.63;;;;;;;4.00;100.00;96897.22;5029639;28;20052;-75
2023/12/29 08:18:04;;;;;;;19.23;13.57;;;;;;;4.02;100.00;96894.97;5016936;28;20559;-74
2023/12/29 08:20:30;;;;;;;19.27;13.38;;;;;;;4.09;100.00;96899.94;5019364;28;20194;-75
2023/12/29 08:22:56;;;;;;;20.73;13.85;;;;;;;4.09;100.00;96891.81;5019332;28;20033;-75
2023/12/29 08:25:22;;;;;;;21.00;14.45;;;;;;;4.05;100.00;96892.75;5014690;28;20049;-75
2023/12/29 08:27:48;;;;;;;69.35;45.65;;;;;;;4.04;100.00;96896.59;5020663;28;20110;-75
2023/12/29 08:30:13;;;;;;;30.40;18.38;;;;;;;4.01;100.00;96895.28;5020410;28;20140;-74
2023/12/29 08:32:39;;;;;;;28.20;16.98;;;;;;;4.14;100.00;96901.66;5026259;28;20106;-74
2023/12/29 08:35:04;;;;;;;23.30;16.98;;;;;;;4.10;100.00;96893.38;5019196;28;20136;-74
2023/12/29 08:37:30;;;;;;;20.75;13.82;;;;;;;4.14;100.00;96896.25;5015530;28;20060;-74
2023/12/29 08:39:55;;;;;;;20.25;11.77;;;;;;;4.17;100.00;96906.47;5019188;28;20038;-74
2023/12/29 08:42:21;;;;;;;18.27;13.57;;;;;;;4.20;100.00;96901.19;5014643;28;20049;-75
2023/12/29 08:44:47;;;;;;;20.33;14.40;;;;;;;4.22;100.00;96904.38;5019346;28;20128;-74
2023/12/29 08:47:13;;;;;;;25.70;13.65;;;;;;;4.18;100.00;96897.22;5006293;28;20272;-74
2023/12/29 08:49:40;;;;;;;18.10;12.63;;;;;;;4.16;100.00;96902.13;5013874;28;20403;-75
2023/12/29 08:52:06;;;;;;;22.52;14.45;;;;;;;4.20;100.00;96908.53;5008062;28;20136;-74
2023/12/29 08:54:31;;;;;;;22.65;15.05;;;;;;;4.29;100.00;96903.13;5028048;28;20132;-75
2023/12/29 08:56:56;;;;;;;22.58;14.13;;;;;;;4.37;100.00;96908.50;5017762;28;20049;-75
2023/12/29 08:59:23;;;;;;;21.77;14.85;;;;;;;4.42;100.00;96910.28;5033353;28;20583;-74
2023/12/29 09:01:48;;;;;;;21.45;13.90;;;;;;;4.48;100.00;96903.53;5028749;28;20037;-71
2023/12/29 09:04:14;;;;;;;19.83;13.07;;;;;;;4.58;100.00;96905.94;5025288;28;20140;-74
2023/12/29 09:06:39;;;;;;;18.30;11.80;;;;;;;4.66;100.00;96908.94;5022627;28;20034;-74
2023/12/29 09:09:05;;;;;;;18.27;12.27;;;;;;;4.68;100.00;96912.94;5012299;28;20425;-74
2023/12/29 09:11:30;;;;;;;19.50;11.80;;;;;;;4.73;100.00;96914.69;5004724;28;20524;-74
2023/12/29 09:13:55;;;;;;;24.60;14.57;;;;;;;4.75;100.00;96907.00;5025722;28;20124;-75
2023/12/29 09:16:21;;;;;;;18.35;12.70;;;;;;;4.82;100.00;96920.88;5027871;28;20064;-75
2023/12/29 09:18:46;;;;;;;23.38;14.35;;;;;;;4.87;100.00;96918.00;5022362;28;20069;-74
2023/12/29 09:21:12;;;;;;;19.60;12.02;;;;;;;4.92;100.00;96906.97;5016157;28;20439;-74
2023/12/29 09:23:38;;;;;;;18.20;11.27;;;;;;;4.96;100.00;96912.53;5022143;28;20053;-74
2023/12/29 09:26:04;;;;;;;17.92;12.88;;;;;;;4.98;100.00;96907.56;5019612;28;20065;-73
2023/12/29 09:28:32;;;;;;;24.38;17.35;;;;;;;4.95;100.00;96909.03;5036422;28;20033;-74
2023/12/29 09:30:58;;;;;;;15.65;10.80;;;;;;;4.96;100.00;96909.81;5006393;28;20037;-74
2023/12/29 09:33:24;;;;;;;16.45;10.80;;;;;;;5.04;100.00;96908.19;5017515;28;20052;-74
2023/12/29 09:35:50;;;;;;;16.80;10.82;;;;;;;5.12;100.00;96915.50;5019930;28;20089;-74
2023/12/29 09:38:15;;;;;;;18.92;15.15;;;;;;;5.22;100.00;96922.50;5017212;28;20156;-74
2023/12/29 09:40:41;;;;;;;16.75;11.50;;;;;;;5.28;100.00;96926.63;5037674;28;20514;-75
2023/12/29 09:43:09;;;;;;;16.73;11.38;;;;;;;5.34;100.00;96925.31;5033485;28;20040;-74
2023/12/29 09:45:40;;;;;;;16.20;10.75;;;;;;;5.32;100.00;96930.28;5021734;28;20165;-73
2023/12/29 09:48:11;;;;;;;19.23;10.70;;;;;;;5.39;100.00;96930.56;5031950;28;20034;-74
2023/12/29 09:50:37;;;;;;;14.75;10.00;;;;;;;5.43;100.00;96936.16;5006433;28;20046;-74
2023/12/29 09:53:04;;;;;;;19.58;12.98;;;;;;;5.51;100.00;96927.97;5021129;28;20103;-73
2023/12/29 09:55:31;;;;;;;20.55;12.38;;;;;;;5.56;100.00;96921.53;5013592;28;20051;-74
2023/12/29 09:57:59;;;;;;;16.02;9.23;;;;;;;5.73;100.00;96920.66;5014806;28;20571;-74
2023/12/29 10:00:25;;;;;;;27.65;16.33;;;;;;;5.84;100.00;96916.41;5009981;28;20084;-74
2023/12/29 10:02:54;;;;;;;13.35;9.18;;;;;;;5.92;100.00;96912.03;5021209;28;20073;-74
2023/12/29 10:05:20;;;;;;;18.73;9.57;;;;;;;5.88;100.00;96905.66;5016759;28;20455;-74
2023/12/29 10:07:46;;;;;;;15.05;9.02;;;;;;;5.86;100.00;96897.84;5016210;28;20056;-74
2023/12/29 10:10:16;;;;;;;20.10;10.25;;;;;;;5.93;100.00;96910.91;5016192;28;20504;-73
2023/12/29 10:12:43;;;;;;;29.20;17.33;;;;;;;6.04;100.00;96903.97;5021759;28;20103;-73
2023/12/29 10:15:35;;;;;;;22.17;13.98;;;;;;;6.12;100.00;96914.00;5014973;28;20523;-75
2023/12/29 10:18:27;;;;;;;19.40;11.90;;;;;;;6.21;100.00;96903.06;5006175;28;20522;-75
2023/12/29 10:21:22;;;;;;;26.90;12.80;;;;;;;6.28;100.00;96888.91;5010702;28;20041;-75
2023/12/29 10:23:56;;;;;;;22.67;12.18;;;;;;;6.38;100.00;96887.72;5013414;28;20045;-74
2023/12/29 10:26:23;;;;;;;25.02;14.57;;;;;;;6.45;100.00;96877.88;4999882;28;20802;-74
2023/12/29 10:28:49;;;;;;;26.95;15.90;;;;;;;6.61;100.00;96874.50;5020298;28;20049;-75
2023/12/29 10:31:16;;;;;;;22.45;13.73;;;;;;;6.75;100.00;96871.47;5008362;28;20045;-75
2023/12/29 10:33:41;;;;;;;19.00;10.45;;;;;;;6.92;100.00;96854.16;5015970;28;20041;-74
2023/12/29 10:36:07;;;;;;;21.73;11.68;;;;;;;7.04;100.00;96856.88;5014170;28;20184;-73
2023/12/29 10:38:33;;;;;;;20.80;11.05;;;;;;;7.23;100.00;96854.38;5029291;28;20124;-75
2023/12/29 10:41:14;;;;;;;24.15;13.23;;;;;;;7.31;100.00;96849.97;5021283;28;20630;-75
2023/12/29 10:43:47;;;;;;;22.42;12.75;;;;;;;7.45;100.00;96847.69;5020098;28;20362;-75
2023/12/29 10:46:12;;;;;;;17.73;9.32;;;;;;;7.80;100.00;96840.91;5018161;28;20551;-75
2023/12/29 10:48:39;;;;;;;19.45;10.93;;;;;;;7.83;100.00;96834.75;5020498;28;20042;-75
2023/12/29 10:51:05;;;;;;;19.10;10.52;;;;;;;7.80;100.00;96838.97;5013487;28;20137;-73
2023/12/29 10:53:35;;;;;;;18.58;11.18;;;;;;;7.86;100.00;96828.63;5013190;28;20496;-74
2023/12/29 10:56:00;;;;;;;18.58;10.77;;;;;;;7.97;100.00;96823.47;5004644;28;20084;-74
2023/12/29 10:58:29;;;;;;;15.00;9.38;;;;;;;8.24;100.00;96828.13;5030052;28;20045;-74
2023/12/29 11:00:58;;;;;;;14.80;9.50;;;;;;;8.39;100.00;96815.69;5012163;28;20143;-74
2023/12/29 11:03:24;;;;;;;10.10;7.43;;;;;;;8.60;100.00;96820.13;5030752;28;20045;-73
2023/12/29 11:05:50;;;;;;;12.98;7.75;;;;;;;8.69;100.00;96812.56;5037496;28;20331;-73
2023/12/29 11:08:21;;;;;;;15.10;9.50;;;;;;;8.63;100.00;96813.19;5002533;28;20084;-74
2023/12/29 11:10:48;;;;;;;11.57;7.68;;;;;;;8.64;100.00;96818.28;5019743;28;20658;-74
2023/12/29 11:13:14;;;;;;;14.70;7.43;;;;;;;8.69;100.00;96812.56;5010146;28;20551;-74